KPSF

Pittsfield Municipal Airport

Pittsfield, Massachusetts, USA
METAR KPSF 160054Z AUTO 09004KT 10SM CLR 04/00 A3018 RMK AO2 SLP219 T00390000
Observed Flight Rules
Dec-16 @ 00:54 UTC (22 minutes ago) Visual Flight Rules
Wind Visibility Clouds
90° at 4 knots 10 miles
  • Clear skies
Temperatures Readings
Current 4°C / 39°F
Dewpoint 0°C / 32°F
Humidity 75%
Altimeter 30.18" Hg
Pressure 1021.9 hPa
Elevation 355
METAR KPSF 160054Z AUTO 09004KT 10SM CLR 04/00 A3018 RMK AO2 SLP219 T00390000
Observed Flight Rules
Dec-16 @ 00:54 UTC
(22 minutes ago)
VFR
Wind Visibility
90° at 4 knots 10 miles
Clouds
  • Clear skies
Temperature Dewpoint
4°C / 39°F 0°C / 32°F
Humidity Altimeter Pressure
75% 30.18" Hg 1021.9 hPa